Ecuador Ama la vida
Dirección General de Aviación Civil
IFIS
Jueves 19 de Abril del 2018
Buscar por aerodromo o helipuerto
Ingrese nombre de aeródromo, localidad o designador OACI:
TAF: SEQM 192245Z 2000/2024 03004KT 9999 FEW008 BKN020 SCT100 TEMPO 20078/2011 6000 BCFG FM201200 VRB03KT 9999 SCT030 SCT100 FM201800 36012KT 9999 BKN033 TEMPO 2018/2020 18012KT TX25/2019Z TN10/2011Z
TAF del 19/04/2018 a las 22:45 UTC
Período de validez: desde el 20 a las 00:00 UTC hasta el 20 a las 24:00 UTC
Viento: dirección 030 grados, velocidad 4 nudos
Visibilidad reinante: 10 km o más
Nubes: Escasas a 800 pies sobre el nivel del terreno
Nubes: Fragmentadas a 2000 pies sobre el nivel del terreno
Nubes: Dispersas a 10000 pies sobre el nivel del terreno
Se espera en forma temporal entre las 20:00 UTC y las 07:00 UTC:
Visibilidad reinante: 6000 metros
Bancos de Niebla
Desde el 20 a las 12:00 UTC
Viento: dirección variable, velocidad 3 nudos
Visibilidad reinante: 10 km o más
Nubes: Dispersas a 3000 pies sobre el nivel del terreno
Nubes: Dispersas a 10000 pies sobre el nivel del terreno
Desde el 20 a las 18:00 UTC
Viento: dirección 360 grados, velocidad 12 nudos
Visibilidad reinante: 10 km o más
Nubes: Fragmentadas a 3300 pies sobre el nivel del terreno
Se espera en forma temporal entre las 18:00 UTC del 20 y las 20:00 UTC del 20:
Viento: dirección 180 grados, velocidad 12 nudos
Temperatura máxima: 25ºC el 20 a las 19:00 UTC
Temperatura mínima: 10ºC el 20 a las 11:00 UTC